sensor_id;sensor_type;location;lat;lon;timestamp;pressure;altitude;pressure_sealevel;temperature;humidity
12486;BME280;6307;46.804;11.580;2022-12-07T00:01:28;-20874.03;;;0.75;100.00
12486;BME280;6307;46.804;11.580;2022-12-07T00:03:57;-20873.13;;;0.72;100.00
12486;BME280;6307;46.804;11.580;2022-12-07T00:06:36;-20875.22;;;0.79;100.00
12486;BME280;6307;46.804;11.580;2022-12-07T00:09:05;-20870.25;;;0.62;100.00
12486;BME280;6307;46.804;11.580;2022-12-07T00:11:34;-20867.53;;;0.53;100.00
12486;BME280;6307;46.804;11.580;2022-12-07T00:14:03;-20869.94;;;0.61;100.00
12486;BME280;6307;46.804;11.580;2022-12-07T00:16:34;-20870.41;;;0.63;100.00
12486;BME280;6307;46.804;11.580;2022-12-07T00:19:01;-20870.53;;;0.63;100.00
12486;BME280;6307;46.804;11.580;2022-12-07T00:21:31;-20867.84;;;0.54;100.00
12486;BME280;6307;46.804;11.580;2022-12-07T00:24:01;-20870.69;;;0.64;100.00
12486;BME280;6307;46.804;11.580;2022-12-07T00:26:37;-20868.88;;;0.58;100.00
12486;BME280;6307;46.804;11.580;2022-12-07T00:29:16;-20865.13;;;0.45;100.00
12486;BME280;6307;46.804;11.580;2022-12-07T00:31:44;-20868.44;;;0.56;100.00
12486;BME280;6307;46.804;11.580;2022-12-07T00:34:15;-20865.41;;;0.46;100.00
12486;BME280;6307;46.804;11.580;2022-12-07T00:36:43;-20868.28;;;0.56;100.00
12486;BME280;6307;46.804;11.580;2022-12-07T00:39:09;-20871.75;;;0.67;100.00
12486;BME280;6307;46.804;11.580;2022-12-07T00:41:36;-20868.59;;;0.57;100.00
12486;BME280;6307;46.804;11.580;2022-12-07T00:44:02;-20871.31;;;0.66;100.00
12486;BME280;6307;46.804;11.580;2022-12-07T00:46:29;-20872.22;;;0.69;100.00
12486;BME280;6307;46.804;11.580;2022-12-07T00:48:55;-20869.34;;;0.59;100.00
12486;BME280;6307;46.804;11.580;2022-12-07T00:51:23;-20866.47;;;0.50;100.00
12486;BME280;6307;46.804;11.580;2022-12-07T00:53:51;-20866.47;;;0.50;100.00
12486;BME280;6307;46.804;11.580;2022-12-07T00:56:23;-20871.16;;;0.65;100.00
12486;BME280;6307;46.804;11.580;2022-12-07T00:58:54;-20865.56;;;0.47;100.00
12486;BME280;6307;46.804;11.580;2022-12-07T01:01:21;-20863.00;;;0.38;100.00
12486;BME280;6307;46.804;11.580;2022-12-07T01:03:47;-20866.03;;;0.48;100.00
12486;BME280;6307;46.804;11.580;2022-12-07T01:06:19;-20866.19;;;0.49;100.00
12486;BME280;6307;46.804;11.580;2022-12-07T01:08:46;-20859.06;;;0.25;100.00
12486;BME280;6307;46.804;11.580;2022-12-07T01:11:15;-20858.78;;;0.24;100.00
12486;BME280;6307;46.804;11.580;2022-12-07T01:13:43;-20864.66;;;0.44;100.00
12486;BME280;6307;46.804;11.580;2022-12-07T01:16:13;-20866.47;;;0.50;100.00
12486;BME280;6307;46.804;11.580;2022-12-07T01:18:40;-20861.63;;;0.34;100.00
12486;BME280;6307;46.804;11.580;2022-12-07T01:21:11;-20860.75;;;0.31;100.00
12486;BME280;6307;46.804;11.580;2022-12-07T01:23:39;-20861.50;;;0.33;100.00
12486;BME280;6307;46.804;11.580;2022-12-07T01:26:13;-20859.53;;;0.27;100.00
12486;BME280;6307;46.804;11.580;2022-12-07T01:28:41;-20860.13;;;0.29;100.00
12486;BME280;6307;46.804;11.580;2022-12-07T01:31:11;-20863.00;;;0.38;100.00
12486;BME280;6307;46.804;11.580;2022-12-07T01:33:41;-20858.47;;;0.23;100.00
12486;BME280;6307;46.804;11.580;2022-12-07T01:36:15;-20860.13;;;0.29;100.00
12486;BME280;6307;46.804;11.580;2022-12-07T01:38:44;-20857.88;;;0.21;100.00
12486;BME280;6307;46.804;11.580;2022-12-07T01:41:12;-20857.25;;;0.19;100.00
12486;BME280;6307;46.804;11.580;2022-12-07T01:44:11;-20865.56;;;0.47;100.00
12486;BME280;6307;46.804;11.580;2022-12-07T01:46:55;-20855.59;;;0.14;100.00
12486;BME280;6307;46.804;11.580;2022-12-07T01:49:31;-20863.31;;;0.39;100.00
12486;BME280;6307;46.804;11.580;2022-12-07T01:52:27;-20857.72;;;0.21;100.00
12486;BME280;6307;46.804;11.580;2022-12-07T01:55:00;-20861.94;;;0.35;100.00
12486;BME280;6307;46.804;11.580;2022-12-07T01:57:30;-20858.31;;;0.23;100.00
12486;BME280;6307;46.804;11.580;2022-12-07T01:59:59;-20861.03;;;0.32;100.00
12486;BME280;6307;46.804;11.580;2022-12-07T02:02:30;-20862.41;;;0.36;100.00
12486;BME280;6307;46.804;11.580;2022-12-07T02:05:01;-20864.06;;;0.42;100.00
12486;BME280;6307;46.804;11.580;2022-12-07T02:07:29;-20857.88;;;0.21;100.00
12486;BME280;6307;46.804;11.580;2022-12-07T02:09:56;-20856.50;;;0.17;100.00
12486;BME280;6307;46.804;11.580;2022-12-07T02:12:23;-20859.06;;;0.25;100.00
12486;BME280;6307;46.804;11.580;2022-12-07T02:14:51;-20860.59;;;0.30;100.00
12486;BME280;6307;46.804;11.580;2022-12-07T02:17:25;-20858.16;;;0.22;100.00
12486;BME280;6307;46.804;11.580;2022-12-07T02:20:18;-20855.91;;;0.15;100.00
12486;BME280;6307;46.804;11.580;2022-12-07T02:28:44;-20855.91;;;0.15;100.00
12486;BME280;6307;46.804;11.580;2022-12-07T02:31:30;-20858.78;;;0.24;100.00
12486;BME280;6307;46.804;11.580;2022-12-07T02:34:05;-20850.47;;;-0.03;100.00
12486;BME280;6307;46.804;11.580;2022-12-07T02:36:42;-20853.63;;;0.07;100.00
12486;BME280;6307;46.804;11.580;2022-12-07T02:39:17;-20857.25;;;0.19;100.00
12486;BME280;6307;46.804;11.580;2022-12-07T02:42:13;-20852.56;;;0.04;100.00
12486;BME280;6307;46.804;11.580;2022-12-07T02:44:45;-20851.06;;;-0.01;100.00
12486;BME280;6307;46.804;11.580;2022-12-07T02:47:14;-20852.44;;;0.03;100.00
12486;BME280;6307;46.804;11.580;2022-12-07T02:49:42;-20854.25;;;0.09;100.00
12486;BME280;6307;46.804;11.580;2022-12-07T02:52:09;-20861.78;;;0.34;100.00
12486;BME280;6307;46.804;11.580;2022-12-07T02:54:35;-20859.69;;;0.27;100.00
12486;BME280;6307;46.804;11.580;2022-12-07T03:00:08;-20854.53;;;0.10;100.00
12486;BME280;6307;46.804;11.580;2022-12-07T03:02:46;-20848.50;;;-0.10;100.00
12486;BME280;6307;46.804;11.580;2022-12-07T03:05:57;-20851.69;;;0.01;100.00
12486;BME280;6307;46.804;11.580;2022-12-07T03:09:11;-20853.34;;;0.06;100.00
12486;BME280;6307;46.804;11.580;2022-12-07T03:11:50;-20854.84;;;0.11;100.00
12486;BME280;6307;46.804;11.580;2022-12-07T03:14:29;-20859.81;;;0.28;100.00
12486;BME280;6307;46.804;11.580;2022-12-07T03:17:05;-20858.16;;;0.22;100.00
12486;BME280;6307;46.804;11.580;2022-12-07T03:19:48;-20854.25;;;0.09;100.00
12486;BME280;6307;46.804;11.580;2022-12-07T03:22:19;-20851.97;;;0.02;100.00
12486;BME280;6307;46.804;11.580;2022-12-07T03:24:54;-20856.50;;;0.17;100.00
12486;BME280;6307;46.804;11.580;2022-12-07T03:27:28;-20857.56;;;0.20;100.00
12486;BME280;6307;46.804;11.580;2022-12-07T03:30:10;-20857.13;;;0.19;100.00
12486;BME280;6307;46.804;11.580;2022-12-07T03:33:03;-20861.03;;;0.32;100.00
12486;BME280;6307;46.804;11.580;2022-12-07T03:35:38;-20854.53;;;0.10;100.00
12486;BME280;6307;46.804;11.580;2022-12-07T03:38:22;-20849.09;;;-0.08;100.00
12486;BME280;6307;46.804;11.580;2022-12-07T03:41:06;-20858.94;;;0.25;100.00
12486;BME280;6307;46.804;11.580;2022-12-07T03:43:39;-20862.41;;;0.36;100.00
12486;BME280;6307;46.804;11.580;2022-12-07T03:54:36;-20856.66;;;0.17;100.00
12486;BME280;6307;46.804;11.580;2022-12-07T03:57:17;-20856.06;;;0.15;100.00
12486;BME280;6307;46.804;11.580;2022-12-07T03:59:44;-20854.69;;;0.11;100.00
12486;BME280;6307;46.804;11.580;2022-12-07T04:02:13;-20857.13;;;0.19;100.00
12486;BME280;6307;46.804;11.580;2022-12-07T04:04:40;-20856.50;;;0.17;100.00
12486;BME280;6307;46.804;11.580;2022-12-07T04:07:06;-20853.63;;;0.07;100.00
12486;BME280;6307;46.804;11.580;2022-12-07T04:09:33;-20855.44;;;0.13;100.00
12486;BME280;6307;46.804;11.580;2022-12-07T04:11:59;-20854.38;;;0.10;100.00
12486;BME280;6307;46.804;11.580;2022-12-07T04:14:25;-20851.22;;;-0.01;100.00
12486;BME280;6307;46.804;11.580;2022-12-07T04:16:54;-20852.72;;;0.04;100.00
12486;BME280;6307;46.804;11.580;2022-12-07T04:19:26;-20850.63;;;-0.03;100.00
12486;BME280;6307;46.804;11.580;2022-12-07T04:21:56;-20854.84;;;0.11;100.00
12486;BME280;6307;46.804;11.580;2022-12-07T04:24:24;-20849.41;;;-0.07;100.00
12486;BME280;6307;46.804;11.580;2022-12-07T04:26:51;-20848.50;;;-0.10;100.00
12486;BME280;6307;46.804;11.580;2022-12-07T04:29:18;-20852.56;;;0.04;100.00
12486;BME280;6307;46.804;11.580;2022-12-07T04:31:45;-20857.72;;;0.21;100.00
12486;BME280;6307;46.804;11.580;2022-12-07T04:34:12;-20851.38;;;0.00;100.00
12486;BME280;6307;46.804;11.580;2022-12-07T04:36:39;-20853.78;;;0.08;100.00
12486;BME280;6307;46.804;11.580;2022-12-07T04:39:07;-20852.56;;;0.04;100.00
12486;BME280;6307;46.804;11.580;2022-12-07T04:41:38;-20858.94;;;0.25;100.00
12486;BME280;6307;46.804;11.580;2022-12-07T04:44:04;-20859.06;;;0.25;100.00
12486;BME280;6307;46.804;11.580;2022-12-07T04:46:32;-20861.19;;;0.32;100.00
12486;BME280;6307;46.804;11.580;2022-12-07T04:48:59;-20866.78;;;0.51;100.00
12486;BME280;6307;46.804;11.580;2022-12-07T04:51:27;-20863.44;;;0.40;100.00
12486;BME280;6307;46.804;11.580;2022-12-07T04:53:55;-20858.94;;;0.25;100.00
12486;BME280;6307;46.804;11.580;2022-12-07T04:56:22;-20860.28;;;0.29;100.00
12486;BME280;6307;46.804;11.580;2022-12-07T04:58:49;-20866.19;;;0.49;100.00
12486;BME280;6307;46.804;11.580;2022-12-07T05:01:17;-20868.00;;;0.55;100.00
12486;BME280;6307;46.804;11.580;2022-12-07T05:03:44;-20866.03;;;0.48;100.00
12486;BME280;6307;46.804;11.580;2022-12-07T05:06:11;-20864.06;;;0.42;100.00
12486;BME280;6307;46.804;11.580;2022-12-07T05:08:38;-20865.88;;;0.48;100.00
12486;BME280;6307;46.804;11.580;2022-12-07T05:11:05;-20862.84;;;0.38;100.00
12486;BME280;6307;46.804;11.580;2022-12-07T05:13:32;-20866.63;;;0.50;100.00
12486;BME280;6307;46.804;11.580;2022-12-07T05:16:00;-20866.78;;;0.51;100.00
12486;BME280;6307;46.804;11.580;2022-12-07T05:18:26;-20861.63;;;0.34;100.00
12486;BME280;6307;46.804;11.580;2022-12-07T05:20:53;-20863.44;;;0.40;100.00
12486;BME280;6307;46.804;11.580;2022-12-07T05:23:19;-20862.84;;;0.38;100.00
12486;BME280;6307;46.804;11.580;2022-12-07T05:25:46;-20862.56;;;0.37;100.00
12486;BME280;6307;46.804;11.580;2022-12-07T05:28:12;-20861.78;;;0.34;100.00
12486;BME280;6307;46.804;11.580;2022-12-07T05:30:38;-20857.56;;;0.20;100.00
12486;BME280;6307;46.804;11.580;2022-12-07T05:33:04;-20859.81;;;0.28;100.00
12486;BME280;6307;46.804;11.580;2022-12-07T05:35:30;-20859.06;;;0.25;100.00
12486;BME280;6307;46.804;11.580;2022-12-07T05:37:56;-20863.00;;;0.38;100.00
12486;BME280;6307;46.804;11.580;2022-12-07T05:40:23;-20864.81;;;0.44;100.00
12486;BME280;6307;46.804;11.580;2022-12-07T05:42:49;-20867.69;;;0.54;100.00
12486;BME280;6307;46.804;11.580;2022-12-07T05:45:15;-20863.44;;;0.40;100.00
12486;BME280;6307;46.804;11.580;2022-12-07T05:47:42;-20864.38;;;0.43;100.00
12486;BME280;6307;46.804;11.580;2022-12-07T05:50:08;-20861.34;;;0.33;100.00
12486;BME280;6307;46.804;11.580;2022-12-07T05:52:34;-20865.25;;;0.46;100.00
12486;BME280;6307;46.804;11.580;2022-12-07T05:55:01;-20864.06;;;0.42;100.00
12486;BME280;6307;46.804;11.580;2022-12-07T05:57:27;-20865.56;;;0.47;100.00
12486;BME280;6307;46.804;11.580;2022-12-07T05:59:53;-20866.47;;;0.50;100.00
12486;BME280;6307;46.804;11.580;2022-12-07T06:02:19;-20867.22;;;0.52;100.00
12486;BME280;6307;46.804;11.580;2022-12-07T06:04:46;-20864.50;;;0.43;100.00
12486;BME280;6307;46.804;11.580;2022-12-07T06:07:14;-20867.69;;;0.54;100.00
12486;BME280;6307;46.804;11.580;2022-12-07T06:09:42;-20866.94;;;0.51;100.00
12486;BME280;6307;46.804;11.580;2022-12-07T06:12:12;-20863.75;;;0.41;100.00
12486;BME280;6307;46.804;11.580;2022-12-07T06:14:57;-20868.00;;;0.55;100.00
12486;BME280;6307;46.804;11.580;2022-12-07T06:17:24;-20867.22;;;0.52;100.00
12486;BME280;6307;46.804;11.580;2022-12-07T06:19:50;-20867.38;;;0.53;100.00
12486;BME280;6307;46.804;11.580;2022-12-07T06:22:17;-20875.53;;;0.80;100.00
12486;BME280;6307;46.804;11.580;2022-12-07T06:24:43;-20873.88;;;0.74;100.00
12486;BME280;6307;46.804;11.580;2022-12-07T06:27:10;-20875.69;;;0.80;100.00
12486;BME280;6307;46.804;11.580;2022-12-07T06:29:36;-20867.69;;;0.54;100.00
12486;BME280;6307;46.804;11.580;2022-12-07T06:32:03;-20874.03;;;0.75;100.00
12486;BME280;6307;46.804;11.580;2022-12-07T06:34:30;-20874.03;;;0.75;100.00
12486;BME280;6307;46.804;11.580;2022-12-07T06:36:56;-20875.84;;;0.81;100.00
12486;BME280;6307;46.804;11.580;2022-12-07T06:39:24;-20870.41;;;0.63;100.00
12486;BME280;6307;46.804;11.580;2022-12-07T06:41:52;-20874.03;;;0.75;100.00
12486;BME280;6307;46.804;11.580;2022-12-07T06:44:19;-20876.91;;;0.84;100.00
12486;BME280;6307;46.804;11.580;2022-12-07T06:46:47;-20870.84;;;0.64;100.00
12486;BME280;6307;46.804;11.580;2022-12-07T06:49:14;-20866.19;;;0.49;100.00
12486;BME280;6307;46.804;11.580;2022-12-07T06:51:40;-20875.69;;;0.80;100.00
12486;BME280;6307;46.804;11.580;2022-12-07T06:54:08;-20865.56;;;0.47;100.00
12486;BME280;6307;46.804;11.580;2022-12-07T06:56:38;-20867.84;;;0.54;100.00
12486;BME280;6307;46.804;11.580;2022-12-07T06:59:06;-20871.31;;;0.66;100.00
12486;BME280;6307;46.804;11.580;2022-12-07T07:01:33;-20867.22;;;0.52;100.00
12486;BME280;6307;46.804;11.580;2022-12-07T07:04:00;-20873.13;;;0.72;100.00
12486;BME280;6307;46.804;11.580;2022-12-07T07:06:27;-20875.22;;;0.79;100.00
12486;BME280;6307;46.804;11.580;2022-12-07T07:08:53;-20874.47;;;0.76;100.00
12486;BME280;6307;46.804;11.580;2022-12-07T07:11:19;-20877.50;;;0.86;100.00
12486;BME280;6307;46.804;11.580;2022-12-07T07:13:45;-20876.59;;;0.83;100.00
12486;BME280;6307;46.804;11.580;2022-12-07T07:16:12;-20881.56;;;1.00;100.00
12486;BME280;6307;46.804;11.580;2022-12-07T07:18:38;-20882.78;;;1.04;100.00
12486;BME280;6307;46.804;11.580;2022-12-07T07:21:04;-20878.56;;;0.90;100.00
12486;BME280;6307;46.804;11.580;2022-12-07T07:23:30;-20879.75;;;0.94;100.00
12486;BME280;6307;46.804;11.580;2022-12-07T07:25:56;-20880.50;;;0.96;100.00
12486;BME280;6307;46.804;11.580;2022-12-07T07:28:22;-20881.28;;;0.99;100.00
12486;BME280;6307;46.804;11.580;2022-12-07T07:30:48;-20885.94;;;1.14;100.00
12486;BME280;6307;46.804;11.580;2022-12-07T07:33:15;-20879.75;;;0.94;100.00
12486;BME280;6307;46.804;11.580;2022-12-07T07:35:41;-20877.50;;;0.86;100.00
12486;BME280;6307;46.804;11.580;2022-12-07T07:38:08;-20881.28;;;0.99;100.00
12486;BME280;6307;46.804;11.580;2022-12-07T07:40:34;-20879.59;;;0.93;100.00
12486;BME280;6307;46.804;11.580;2022-12-07T07:43:00;-20876.59;;;0.83;100.00
12486;BME280;6307;46.804;11.580;2022-12-07T07:45:27;-20887.00;;;1.18;100.00
12486;BME280;6307;46.804;11.580;2022-12-07T07:47:53;-20884.44;;;1.09;100.00
12486;BME280;6307;46.804;11.580;2022-12-07T07:50:21;-20889.88;;;1.27;100.00
12486;BME280;6307;46.804;11.580;2022-12-07T07:52:48;-20890.78;;;1.30;100.00
12486;BME280;6307;46.804;11.580;2022-12-07T07:55:14;-20891.84;;;1.34;100.00
12486;BME280;6307;46.804;11.580;2022-12-07T07:57:41;-20894.56;;;1.43;100.00
12486;BME280;6307;46.804;11.580;2022-12-07T08:00:09;-20890.47;;;1.29;100.00
12486;BME280;6307;46.804;11.580;2022-12-07T08:02:37;-20896.38;;;1.49;100.00
12486;BME280;6307;46.804;11.580;2022-12-07T08:05:03;-20887.16;;;1.18;100.00
12486;BME280;6307;46.804;11.580;2022-12-07T08:07:30;-20891.84;;;1.34;100.00
12486;BME280;6307;46.804;11.580;2022-12-07T08:09:56;-20891.38;;;1.32;100.00
12486;BME280;6307;46.804;11.580;2022-12-07T08:12:22;-20893.66;;;1.40;100.00
12486;BME280;6307;46.804;11.580;2022-12-07T08:14:48;-20895.16;;;1.45;100.00
12486;BME280;6307;46.804;11.580;2022-12-07T08:17:14;-20907.69;;;1.86;100.00
12486;BME280;6307;46.804;11.580;2022-12-07T08:19:40;-20907.69;;;1.86;100.00
12486;BME280;6307;46.804;11.580;2022-12-07T08:22:06;-20905.88;;;1.80;100.00
12486;BME280;6307;46.804;11.580;2022-12-07T08:24:34;-20911.16;;;1.98;100.00
12486;BME280;6307;46.804;11.580;2022-12-07T08:27:01;-20912.34;;;2.02;100.00
12486;BME280;6307;46.804;11.580;2022-12-07T08:29:27;-20911.16;;;1.98;100.00
12486;BME280;6307;46.804;11.580;2022-12-07T08:31:53;-20917.03;;;2.17;100.00
12486;BME280;6307;46.804;11.580;2022-12-07T08:34:20;-20913.88;;;2.07;100.00
12486;BME280;6307;46.804;11.580;2022-12-07T08:36:46;-20911.44;;;1.99;100.00
12486;BME280;6307;46.804;11.580;2022-12-07T08:39:12;-20910.41;;;1.95;100.00
12486;BME280;6307;46.804;11.580;2022-12-07T08:41:38;-20913.13;;;2.04;100.00
12486;BME280;6307;46.804;11.580;2022-12-07T08:44:04;-20914.47;;;2.09;100.00
12486;BME280;6307;46.804;11.580;2022-12-07T08:46:38;-20917.47;;;2.19;100.00
12486;BME280;6307;46.804;11.580;2022-12-07T08:49:17;-20912.66;;;2.03;100.00
12486;BME280;6307;46.804;11.580;2022-12-07T08:51:48;-20916.44;;;2.15;100.00
12486;BME280;6307;46.804;11.580;2022-12-07T08:54:16;-20918.69;;;2.23;100.00
12486;BME280;6307;46.804;11.580;2022-12-07T08:56:44;-20913.41;;;2.05;100.00
12486;BME280;6307;46.804;11.580;2022-12-07T08:59:14;-20915.97;;;2.14;100.00
12486;BME280;6307;46.804;11.580;2022-12-07T09:01:43;-20918.41;;;2.22;100.00
12486;BME280;6307;46.804;11.580;2022-12-07T09:04:09;-20920.81;;;2.30;100.00
12486;BME280;6307;46.804;11.580;2022-12-07T09:06:36;-20926.84;;;2.50;100.00
12486;BME280;6307;46.804;11.580;2022-12-07T09:09:03;-20929.25;;;2.58;100.00
12486;BME280;6307;46.804;11.580;2022-12-07T09:11:29;-20934.06;;;2.74;100.00
12486;BME280;6307;46.804;11.580;2022-12-07T09:13:56;-20940.56;;;2.95;100.00
12486;BME280;6307;46.804;11.580;2022-12-07T09:16:22;-20945.38;;;3.11;100.00
12486;BME280;6307;46.804;11.580;2022-12-07T09:18:48;-20949.47;;;3.25;100.00
12486;BME280;6307;46.804;11.580;2022-12-07T09:21:14;-20956.53;;;3.48;100.00
12486;BME280;6307;46.804;11.580;2022-12-07T09:23:41;-20968.91;;;3.89;100.00
12486;BME280;6307;46.804;11.580;2022-12-07T09:26:07;-20980.03;;;4.26;100.00
12486;BME280;6307;46.804;11.580;2022-12-07T09:28:34;-20980.81;;;4.29;100.00
12486;BME280;6307;46.804;11.580;2022-12-07T09:31:00;-20982.59;;;4.35;99.24
12486;BME280;6307;46.804;11.580;2022-12-07T09:33:27;-20980.50;;;4.28;98.59
12486;BME280;6307;46.804;11.580;2022-12-07T09:35:53;-20972.22;;;4.00;100.00
12486;BME280;6307;46.804;11.580;2022-12-07T09:38:20;-20973.41;;;4.04;100.00
12486;BME280;6307;46.804;11.580;2022-12-07T09:40:46;-20971.59;;;3.98;100.00
12486;BME280;6307;46.804;11.580;2022-12-07T09:43:24;-20979.00;;;4.23;100.00
12486;BME280;6307;46.804;11.580;2022-12-07T09:45:52;-20982.00;;;4.33;100.00
12486;BME280;6307;46.804;11.580;2022-12-07T09:48:38;-20986.53;;;4.48;97.44
12486;BME280;6307;46.804;11.580;2022-12-07T09:51:17;-20991.03;;;4.63;99.79
12486;BME280;6307;46.804;11.580;2022-12-07T09:53:46;-21000.53;;;4.94;90.13
12486;BME280;6307;46.804;11.580;2022-12-07T09:56:14;-21007.91;;;5.19;96.88
12486;BME280;6307;46.804;11.580;2022-12-07T09:58:42;-21007.91;;;5.19;87.70
12486;BME280;6307;46.804;11.580;2022-12-07T10:01:14;-21013.94;;;5.39;81.95
12486;BME280;6307;46.804;11.580;2022-12-07T10:03:47;-21018.28;;;5.53;80.69
12486;BME280;6307;46.804;11.580;2022-12-07T10:06:18;-21021.59;;;5.64;84.87
12486;BME280;6307;46.804;11.580;2022-12-07T10:08:44;-21014.81;;;5.42;86.72
12486;BME280;6307;46.804;11.580;2022-12-07T10:11:11;-21013.47;;;5.37;86.39
12486;BME280;6307;46.804;11.580;2022-12-07T10:13:46;-21013.63;;;5.38;85.04
12486;BME280;6307;46.804;11.580;2022-12-07T10:16:35;-21007.44;;;5.17;87.69
12486;BME280;6307;46.804;11.580;2022-12-07T10:22:14;-21010.31;;;5.27;87.79
12486;BME280;6307;46.804;11.580;2022-12-07T10:24:43;-21017.38;;;5.50;82.26
12486;BME280;6307;46.804;11.580;2022-12-07T10:27:31;-21020.41;;;5.60;79.55
12486;BME280;6307;46.804;11.580;2022-12-07T10:29:58;-21015.72;;;5.45;80.23
12486;BME280;6307;46.804;11.580;2022-12-07T10:32:32;-21015.13;;;5.43;82.96
12486;BME280;6307;46.804;11.580;2022-12-07T10:35:27;-21022.97;;;5.69;81.93
12486;BME280;6307;46.804;11.580;2022-12-07T10:37:56;-21017.25;;;5.50;82.58
12486;BME280;6307;46.804;11.580;2022-12-07T10:40:25;-21021.75;;;5.65;82.35
12486;BME280;6307;46.804;11.580;2022-12-07T10:43:05;-21018.28;;;5.53;88.65
12486;BME280;6307;46.804;11.580;2022-12-07T10:54:59;-21006.09;;;5.13;93.67
12486;BME280;6307;46.804;11.580;2022-12-07T11:20:53;-21013.31;;;5.37;92.05
12486;BME280;6307;46.804;11.580;2022-12-07T11:36:08;-21025.50;;;5.77;78.06
12486;BME280;6307;46.804;11.580;2022-12-07T11:38:16;-21031.09;;;5.96;80.62
12486;BME280;6307;46.804;11.580;2022-12-07T11:40:48;-21028.09;;;5.86;69.91
12486;BME280;6307;46.804;11.580;2022-12-07T11:43:29;-21030.78;;;5.95;71.87
12486;BME280;6307;46.804;11.580;2022-12-07T11:46:03;-21029.44;;;5.90;73.23
12486;BME280;6307;46.804;11.580;2022-12-07T11:49:12;-21032.28;;;6.00;73.87
12486;BME280;6307;46.804;11.580;2022-12-07T11:51:51;-21036.97;;;6.15;75.46
12486;BME280;6307;46.804;11.580;2022-12-07T11:54:27;-21031.25;;;5.96;69.66
12486;BME280;6307;46.804;11.580;2022-12-07T11:57:03;-21036.19;;;6.13;71.86
12486;BME280;6307;46.804;11.580;2022-12-07T11:59:45;-21039.97;;;6.25;75.10
12486;BME280;6307;46.804;11.580;2022-12-07T12:02:23;-21036.50;;;6.14;75.73
12486;BME280;6307;46.804;11.580;2022-12-07T12:05:12;-21034.09;;;6.06;72.62
12486;BME280;6307;46.804;11.580;2022-12-07T12:07:44;-21037.56;;;6.17;73.14
12486;BME280;6307;46.804;11.580;2022-12-07T12:10:23;-21033.66;;;6.04;72.13
12486;BME280;6307;46.804;11.580;2022-12-07T12:13:16;-21037.84;;;6.18;66.57
12486;BME280;6307;46.804;11.580;2022-12-07T12:18:53;-21042.97;;;6.35;67.63
12486;BME280;6307;46.804;11.580;2022-12-07T12:21:56;-21041.47;;;6.30;68.76
12486;BME280;6307;46.804;11.580;2022-12-07T12:24:52;-21041.63;;;6.31;67.51
12486;BME280;6307;46.804;11.580;2022-12-07T12:27:32;-21041.31;;;6.30;62.66
12486;BME280;6307;46.804;11.580;2022-12-07T12:30:06;-21037.84;;;6.18;69.49
12486;BME280;6307;46.804;11.580;2022-12-07T12:32:49;-21036.50;;;6.14;69.63
12486;BME280;6307;46.804;11.580;2022-12-07T12:35:34;-21039.81;;;6.25;68.16
12486;BME280;6307;46.804;11.580;2022-12-07T12:38:27;-21044.34;;;6.40;67.32
12486;BME280;6307;46.804;11.580;2022-12-07T12:40:59;-21044.94;;;6.42;64.29
12486;BME280;6307;46.804;11.580;2022-12-07T12:43:47;-21044.63;;;6.41;68.60
12486;BME280;6307;46.804;11.580;2022-12-07T12:57:32;-21048.53;;;6.54;70.37
12486;BME280;6307;46.804;11.580;2022-12-07T13:00:00;-21043.28;;;6.36;69.04
12486;BME280;6307;46.804;11.580;2022-12-07T13:02:58;-21042.06;;;6.32;62.33
12486;BME280;6307;46.804;11.580;2022-12-07T13:05:28;-21041.16;;;6.29;63.19
12486;BME280;6307;46.804;11.580;2022-12-07T13:10:47;-21045.22;;;6.43;66.12
12486;BME280;6307;46.804;11.580;2022-12-07T13:23:28;-21042.81;;;6.35;62.35
12486;BME280;6307;46.804;11.580;2022-12-07T13:26:03;-21046.44;;;6.47;68.51
12486;BME280;6307;46.804;11.580;2022-12-07T13:28:39;-21048.69;;;6.54;62.48
12486;BME280;6307;46.804;11.580;2022-12-07T13:34:05;-21043.44;;;6.37;67.67
12486;BME280;6307;46.804;11.580;2022-12-07T13:36:55;-21042.38;;;6.33;66.08
12486;BME280;6307;46.804;11.580;2022-12-07T13:39:26;-21044.03;;;6.39;67.16
12486;BME280;6307;46.804;11.580;2022-12-07T13:41:58;-21043.72;;;6.38;68.33
12486;BME280;6307;46.804;11.580;2022-12-07T13:44:27;-21040.72;;;6.28;70.73
12486;BME280;6307;46.804;11.580;2022-12-07T13:49:54;-21031.84;;;5.98;69.04
12486;BME280;6307;46.804;11.580;2022-12-07T13:52:24;-21033.66;;;6.04;70.80
12486;BME280;6307;46.804;11.580;2022-12-07T13:55:13;-21035.16;;;6.09;65.05
12486;BME280;6307;46.804;11.580;2022-12-07T13:57:44;-21037.84;;;6.18;65.00
12486;BME280;6307;46.804;11.580;2022-12-07T14:00:20;-21037.84;;;6.18;65.27
12486;BME280;6307;46.804;11.580;2022-12-07T14:03:22;-21034.56;;;6.07;71.55
12486;BME280;6307;46.804;11.580;2022-12-07T14:06:17;-21029.72;;;5.91;66.58
12486;BME280;6307;46.804;11.580;2022-12-07T14:08:51;-21030.34;;;5.93;67.59
12486;BME280;6307;46.804;11.580;2022-12-07T14:11:41;-21036.81;;;6.15;68.77
12486;BME280;6307;46.804;11.580;2022-12-07T14:14:14;-21035.91;;;6.12;74.27
12486;BME280;6307;46.804;11.580;2022-12-07T14:16:58;-21034.09;;;6.06;69.54
12486;BME280;6307;46.804;11.580;2022-12-07T14:19:50;-21031.84;;;5.98;72.37
12486;BME280;6307;46.804;11.580;2022-12-07T14:22:24;-21030.78;;;5.95;75.04
12486;BME280;6307;46.804;11.580;2022-12-07T14:27:40;-21025.66;;;5.78;75.06
12486;BME280;6307;46.804;11.580;2022-12-07T14:30:21;-21030.63;;;5.94;76.20
12486;BME280;6307;46.804;11.580;2022-12-07T14:32:52;-21033.50;;;6.04;64.52
12486;BME280;6307;46.804;11.580;2022-12-07T14:35:23;-21027.47;;;5.84;76.72
12486;BME280;6307;46.804;11.580;2022-12-07T14:37:50;-21017.09;;;5.49;78.41
12486;BME280;6307;46.804;11.580;2022-12-07T14:40:24;-21017.38;;;5.50;81.06
12486;BME280;6307;46.804;11.580;2022-12-07T14:42:59;-21011.53;;;5.31;75.26
12486;BME280;6307;46.804;11.580;2022-12-07T14:45:27;-21017.69;;;5.51;75.06
12486;BME280;6307;46.804;11.580;2022-12-07T14:47:54;-21020.56;;;5.61;77.78
12486;BME280;6307;46.804;11.580;2022-12-07T14:50:21;-21009.72;;;5.25;85.45
12486;BME280;6307;46.804;11.580;2022-12-07T14:52:59;-21009.41;;;5.24;81.82
12486;BME280;6307;46.804;11.580;2022-12-07T14:55:30;-21008.06;;;5.19;82.67
12486;BME280;6307;46.804;11.580;2022-12-07T14:57:58;-21015.28;;;5.43;75.16